Time;durP1;ratioP1;P1;durP2;ratioP2;P2;SDS_P1;SDS_P2;PMS_P1;PMS_P2;Temp;Humidity;BMP_temperature;BMP_pressure;BME280_temperature;BME280_humidity;BME280_pressure;Samples;Min_cycle;Max_cycle;Signal;HPM_P1;HPM_P2
2022/12/03 00:00:45;;;;;;;21.15;13.02;;;;;;;;;;4825229;29;20058;-69
2022/12/03 00:03:11;;;;;;;17.85;12.15;;;;;;;;;;4825528;29;20050;-69
2022/12/03 00:05:37;;;;;;;17.02;11.35;;;;;;;;;;4825878;29;20057;-69
2022/12/03 00:08:03;;;;;;;19.42;10.95;;;;;;;;;;4828374;29;20042;-69
2022/12/03 00:10:29;;;;;;;17.25;10.55;;;;;;;;;;4828368;29;20046;-69
2022/12/03 00:12:55;;;;;;;18.55;11.57;;;;;;;;;;4828770;29;20126;-69
2022/12/03 00:15:21;;;;;;;29.38;17.92;;;;;;;;;;4828886;29;20056;-69
2022/12/03 00:17:48;;;;;;;27.70;16.35;;;;;;;;;;4828337;29;20038;-69
2022/12/03 00:20:18;;;;;;;57.05;30.15;;;;;;;;;;4828026;29;20053;-69
2022/12/03 00:22:44;;;;;;;;;;;;;;;;;;4828606;29;20154;-69
2022/12/03 00:25:11;;;;;;;62.35;31.70;;;;;;;;;;4827885;29;19989;-69
2022/12/03 00:27:37;;;;;;;49.45;27.08;;;;;;;;;;4827915;29;20495;-69
2022/12/03 00:30:04;;;;;;;38.50;21.58;;;;;;;;;;4828134;29;20046;-69
2022/12/03 00:32:30;;;;;;;42.53;22.83;;;;;;;;;;4827862;29;20591;-69
2022/12/03 00:34:56;;;;;;;38.20;21.25;;;;;;;;;;4828332;29;20077;-69
2022/12/03 00:37:22;;;;;;;34.83;19.90;;;;;;;;;;4827592;29;20069;-69
2022/12/03 00:39:49;;;;;;;21.95;13.13;;;;;;;;;;4828547;29;20138;-69
2022/12/03 00:42:15;;;;;;;21.02;13.70;;;;;;;;;;4827368;29;20071;-69
2022/12/03 00:44:41;;;;;;;20.90;13.88;;;;;;;;;;4827895;29;20042;-69
2022/12/03 00:47:08;;;;;;;19.05;12.07;;;;;;;;;;4827394;29;20058;-69
2022/12/03 00:49:34;;;;;;;16.48;10.43;;;;;;;;;;4828549;29;20065;-69
2022/12/03 00:52:01;;;;;;;16.35;10.60;;;;;;;;;;4827805;29;20051;-69
2022/12/03 00:54:27;;;;;;;17.70;10.60;;;;;;;;;;4827982;29;20046;-69
2022/12/03 00:56:53;;;;;;;18.17;10.65;;;;;;;;;;4827689;29;20051;-69
2022/12/03 00:59:19;;;;;;;18.13;10.90;;;;;;;;;;4827926;29;20069;-69
2022/12/03 01:01:45;;;;;;;15.23;9.73;;;;;;;;;;4827352;29;20054;-69
2022/12/03 01:04:11;;;;;;;17.05;10.10;;;;;;;;;;4828063;29;20122;-69
2022/12/03 01:06:38;;;;;;;16.70;10.55;;;;;;;;;;4827128;29;20054;-69
2022/12/03 01:09:04;;;;;;;15.48;9.93;;;;;;;;;;4827238;29;20047;-69
2022/12/03 01:11:36;;;;;;;15.77;9.48;;;;;;;;;;4827615;29;20106;-69
2022/12/03 01:14:03;;;;;;;14.52;9.63;;;;;;;;;;4827934;29;20064;-69
2022/12/03 01:16:29;;;;;;;14.48;10.27;;;;;;;;;;4827212;29;20554;-69
2022/12/03 01:18:55;;;;;;;14.77;10.02;;;;;;;;;;4827609;29;20042;-69
2022/12/03 01:21:21;;;;;;;19.08;12.88;;;;;;;;;;4827444;29;20114;-69
2022/12/03 01:23:48;;;;;;;18.40;13.30;;;;;;;;;;4827079;29;20046;-69
2022/12/03 01:26:14;;;;;;;18.83;10.63;;;;;;;;;;4827228;29;20048;-69
2022/12/03 01:28:40;;;;;;;16.33;11.30;;;;;;;;;;4827279;29;20490;-69
2022/12/03 01:33:52;;;;;;;20.65;12.52;;;;;;;;;;4826723;29;20129;-69
2022/12/03 01:36:18;;;;;;;23.33;15.20;;;;;;;;;;4827171;29;20042;-69
2022/12/03 01:38:44;;;;;;;22.73;14.43;;;;;;;;;;4826886;29;20046;-69
2022/12/03 01:41:10;;;;;;;23.80;15.05;;;;;;;;;;4827045;29;20051;-69
2022/12/03 01:43:36;;;;;;;27.48;15.10;;;;;;;;;;4827548;29;20069;-69
2022/12/03 01:46:03;;;;;;;21.40;13.45;;;;;;;;;;4826882;29;20543;-69
2022/12/03 01:48:31;;;;;;;20.52;13.43;;;;;;;;;;4826935;29;20103;-69
2022/12/03 01:50:57;;;;;;;22.38;14.07;;;;;;;;;;4827268;29;20057;-69
2022/12/03 01:53:23;;;;;;;27.77;17.42;;;;;;;;;;4827077;29;20046;-69
2022/12/03 01:55:49;;;;;;;29.90;17.23;;;;;;;;;;4827122;29;20085;-69
2022/12/03 01:58:16;;;;;;;20.92;14.98;;;;;;;;;;4827228;29;20034;-69
2022/12/03 02:00:42;;;;;;;22.13;14.55;;;;;;;;;;4827035;29;20060;-69
2022/12/03 02:03:12;;;;;;;17.42;11.93;;;;;;;;;;4827176;29;20069;-69
2022/12/03 02:05:38;;;;;;;15.77;11.02;;;;;;;;;;4827229;29;20073;-69
2022/12/03 02:08:38;;;;;;;15.88;10.18;;;;;;;;;;4826472;29;20502;-69
2022/12/03 02:11:09;;;;;;;15.32;10.48;;;;;;;;;;4805794;29;20054;-69
2022/12/03 02:13:35;;;;;;;15.02;10.07;;;;;;;;;;4827440;29;20077;-69
2022/12/03 02:16:02;;;;;;;15.38;10.27;;;;;;;;;;4826695;29;20046;-69
2022/12/03 02:18:28;;;;;;;15.73;9.63;;;;;;;;;;4826773;29;20049;-69
2022/12/03 02:21:10;;;;;;;15.00;9.55;;;;;;;;;;4826422;29;20406;-69
2022/12/03 02:23:39;;;;;;;17.67;10.63;;;;;;;;;;4826609;29;20052;-69
2022/12/03 02:26:05;;;;;;;16.27;10.43;;;;;;;;;;4826865;29;20533;-69
2022/12/03 02:28:31;;;;;;;15.10;10.15;;;;;;;;;;4825786;29;20038;-69
2022/12/03 02:30:58;;;;;;;14.93;10.05;;;;;;;;;;4826242;29;20058;-69
2022/12/03 02:33:24;;;;;;;15.23;10.20;;;;;;;;;;4826589;29;20077;-69
2022/12/03 02:35:50;;;;;;;15.85;10.27;;;;;;;;;;4826260;29;20051;-69
2022/12/03 02:38:23;;;;;;;14.88;10.18;;;;;;;;;;4826425;29;20054;-69
2022/12/03 02:40:52;;;;;;;16.98;10.45;;;;;;;;;;4826468;29;20043;-69
2022/12/03 02:43:19;;;;;;;16.73;10.63;;;;;;;;;;4825934;29;20384;-69
2022/12/03 02:46:04;;;;;;;14.35;9.70;;;;;;;;;;4826337;29;20091;-69
2022/12/03 02:48:34;;;;;;;20.05;11.93;;;;;;;;;;4826420;29;20057;-69
2022/12/03 02:51:03;;;;;;;22.25;13.30;;;;;;;;;;4825968;29;20102;-69
2022/12/03 02:53:31;;;;;;;23.63;14.05;;;;;;;;;;4825615;29;20441;-69
2022/12/03 02:55:58;;;;;;;26.67;15.02;;;;;;;;;;4825993;29;20562;-69
2022/12/03 02:58:25;;;;;;;31.67;18.08;;;;;;;;;;4826069;29;20129;-69
2022/12/03 03:00:52;;;;;;;33.90;20.50;;;;;;;;;;4825888;29;20054;-69
2022/12/03 03:03:20;;;;;;;31.67;17.80;;;;;;;;;;4826450;29;20042;-69
2022/12/03 03:05:46;;;;;;;28.73;16.33;;;;;;;;;;4825831;29;20129;-69
2022/12/03 03:08:13;;;;;;;21.25;13.35;;;;;;;;;;4825399;29;20074;-69
2022/12/03 03:10:40;;;;;;;23.10;13.52;;;;;;;;;;4825713;29;20050;-69
2022/12/03 03:13:08;;;;;;;19.27;11.45;;;;;;;;;;4826356;29;20043;-69
2022/12/03 03:15:36;;;;;;;20.52;12.98;;;;;;;;;;4825691;29;20129;-69
2022/12/03 03:18:02;;;;;;;17.13;11.63;;;;;;;;;;4825395;29;20042;-69
2022/12/03 03:20:28;;;;;;;21.23;13.52;;;;;;;;;;4825426;29;20127;-69
2022/12/03 03:23:03;;;;;;;26.45;17.98;;;;;;;;;;4825762;29;20125;-69
2022/12/03 03:25:30;;;;;;;18.63;12.18;;;;;;;;;;4825936;29;20046;-69
2022/12/03 03:27:56;;;;;;;16.55;12.65;;;;;;;;;;4825324;29;20046;-69
2022/12/03 03:30:22;;;;;;;22.02;14.52;;;;;;;;;;4825292;29;20097;-69
2022/12/03 03:32:48;;;;;;;23.58;14.82;;;;;;;;;;4825277;29;20194;-69
2022/12/03 03:35:14;;;;;;;20.23;13.98;;;;;;;;;;4825529;29;20080;-69
2022/12/03 03:37:41;;;;;;;22.75;14.45;;;;;;;;;;4825387;29;20031;-69
2022/12/03 03:40:07;;;;;;;27.98;17.75;;;;;;;;;;4826921;29;20050;-69
2022/12/03 03:42:34;;;;;;;25.38;16.02;;;;;;;;;;4829152;29;20057;-69
2022/12/03 03:45:00;;;;;;;25.80;16.10;;;;;;;;;;4829034;29;20199;-69
2022/12/03 03:47:26;;;;;;;26.67;16.15;;;;;;;;;;4829080;29;20062;-69
2022/12/03 03:49:52;;;;;;;26.38;16.40;;;;;;;;;;4828893;29;20042;-69
2022/12/03 03:52:19;;;;;;;24.67;15.30;;;;;;;;;;4829061;29;20142;-69
2022/12/03 03:54:45;;;;;;;23.40;14.15;;;;;;;;;;4828849;29;20050;-69
2022/12/03 03:57:12;;;;;;;22.65;13.80;;;;;;;;;;4828920;29;20065;-69
2022/12/03 03:59:38;;;;;;;23.65;13.77;;;;;;;;;;4829086;29;20042;-69
2022/12/03 04:02:04;;;;;;;18.70;12.40;;;;;;;;;;4829144;29;20126;-69
2022/12/03 04:04:34;;;;;;;19.60;12.95;;;;;;;;;;4828873;29;20038;-69
2022/12/03 04:07:00;;;;;;;29.13;16.35;;;;;;;;;;4828405;29;20042;-69
2022/12/03 04:09:26;;;;;;;34.00;21.83;;;;;;;;;;4829064;29;20039;-69
2022/12/03 04:14:37;;;;;;;17.08;11.35;;;;;;;;;;4828771;29;20169;-69
2022/12/03 04:17:03;;;;;;;17.88;11.88;;;;;;;;;;4828644;29;20057;-69
2022/12/03 04:19:29;;;;;;;19.00;11.85;;;;;;;;;;4828625;29;20047;-69
2022/12/03 04:24:40;;;;;;;30.92;19.40;;;;;;;;;;4828618;29;20118;-69
2022/12/03 04:29:50;;;;;;;27.48;17.05;;;;;;;;;;4827994;29;20065;-69
2022/12/03 04:37:46;;;;;;;30.90;18.20;;;;;;;;;;4827690;29;20062;-69
2022/12/03 04:42:57;;;;;;;28.60;18.70;;;;;;;;;;4827765;29;20091;-69
2022/12/03 04:45:23;;;;;;;28.08;18.02;;;;;;;;;;4828234;29;20042;-69
2022/12/03 04:47:49;;;;;;;25.50;17.00;;;;;;;;;;4828206;29;20049;-69
2022/12/03 04:50:15;;;;;;;26.35;17.00;;;;;;;;;;4827819;29;20038;-69
2022/12/03 04:52:41;;;;;;;24.70;15.88;;;;;;;;;;4826847;29;20050;-69
2022/12/03 04:55:07;;;;;;;24.77;16.77;;;;;;;;;;4828592;29;20174;-69
2022/12/03 04:57:33;;;;;;;26.38;16.20;;;;;;;;;;4827746;29;20042;-69
2022/12/03 04:59:59;;;;;;;21.50;13.38;;;;;;;;;;4827983;29;20046;-69
2022/12/03 05:02:26;;;;;;;19.13;12.52;;;;;;;;;;4828074;29;20057;-69
2022/12/03 05:04:52;;;;;;;18.33;12.23;;;;;;;;;;4828165;29;20195;-69
2022/12/03 05:07:18;;;;;;;19.05;12.23;;;;;;;;;;4827451;29;20049;-69
2022/12/03 05:09:44;;;;;;;19.27;11.52;;;;;;;;;;4827845;29;20050;-69
2022/12/03 05:12:10;;;;;;;17.85;11.43;;;;;;;;;;4827907;29;20054;-69
2022/12/03 05:14:36;;;;;;;16.60;11.00;;;;;;;;;;4828027;29;20071;-69
2022/12/03 05:17:02;;;;;;;18.08;11.52;;;;;;;;;;4827897;29;20057;-69
2022/12/03 05:22:13;;;;;;;18.50;11.65;;;;;;;;;;4827018;29;20134;-69
2022/12/03 05:24:39;;;;;;;19.00;12.07;;;;;;;;;;4827618;29;20074;-69
2022/12/03 05:27:05;;;;;;;16.48;11.23;;;;;;;;;;4827714;29;20046;-69
2022/12/03 05:29:31;;;;;;;20.05;12.30;;;;;;;;;;4827560;29;20066;-69
2022/12/03 05:31:58;;;;;;;19.67;11.80;;;;;;;;;;4827629;29;20042;-69
2022/12/03 05:34:24;;;;;;;18.63;12.00;;;;;;;;;;4827710;29;20054;-69
2022/12/03 05:36:50;;;;;;;22.17;13.45;;;;;;;;;;4827078;29;20042;-69
2022/12/03 05:39:16;;;;;;;20.83;13.35;;;;;;;;;;4827397;29;20133;-69
2022/12/03 05:44:27;;;;;;;19.27;12.35;;;;;;;;;;4826857;29;20081;-69
2022/12/03 05:46:53;;;;;;;21.05;14.00;;;;;;;;;;4827155;29;20397;-69
2022/12/03 05:49:19;;;;;;;20.45;13.40;;;;;;;;;;4826946;29;20049;-69
2022/12/03 05:51:45;;;;;;;19.95;13.55;;;;;;;;;;4826684;29;20054;-69
2022/12/03 05:54:11;;;;;;;20.83;13.73;;;;;;;;;;4827186;29;20066;-69
2022/12/03 05:56:37;;;;;;;20.92;13.20;;;;;;;;;;4827363;29;20038;-69
2022/12/03 05:59:03;;;;;;;21.02;13.40;;;;;;;;;;4826800;29;20046;-69
2022/12/03 06:01:30;;;;;;;23.55;14.73;;;;;;;;;;4827398;29;20058;-69
2022/12/03 06:03:56;;;;;;;20.15;14.05;;;;;;;;;;4825938;29;20038;-69
2022/12/03 06:06:22;;;;;;;21.67;13.35;;;;;;;;;;4826897;29;20261;-69
2022/12/03 06:08:48;;;;;;;19.08;12.50;;;;;;;;;;4826701;29;20049;-69
2022/12/03 06:11:14;;;;;;;17.80;11.88;;;;;;;;;;4826803;29;20050;-69
2022/12/03 06:13:40;;;;;;;16.85;12.52;;;;;;;;;;4826902;29;20129;-69
2022/12/03 06:16:06;;;;;;;30.05;19.55;;;;;;;;;;4827219;29;20053;-69
2022/12/03 06:18:32;;;;;;;22.08;15.40;;;;;;;;;;4826751;29;20125;-69
2022/12/03 06:20:58;;;;;;;20.88;13.65;;;;;;;;;;4826890;29;20050;-69
2022/12/03 06:23:24;;;;;;;20.75;12.75;;;;;;;;;;4826143;29;20053;-69
2022/12/03 06:25:51;;;;;;;26.10;15.70;;;;;;;;;;4826710;29;20038;-69
2022/12/03 06:28:17;;;;;;;22.70;13.65;;;;;;;;;;4826678;29;20133;-69
2022/12/03 06:30:43;;;;;;;24.77;16.17;;;;;;;;;;4826317;29;20038;-69
2022/12/03 06:33:09;;;;;;;26.90;16.52;;;;;;;;;;4812773;29;20054;-68
2022/12/03 06:35:35;;;;;;;24.95;15.45;;;;;;;;;;4800471;29;20126;-69
2022/12/03 06:38:01;;;;;;;21.88;14.18;;;;;;;;;;4789937;30;20526;-69
2022/12/03 06:40:27;;;;;;;21.40;13.30;;;;;;;;;;4793461;29;20046;-69
2022/12/03 06:42:53;;;;;;;17.75;12.30;;;;;;;;;;4800824;29;20047;-69
2022/12/03 06:45:20;;;;;;;17.20;11.05;;;;;;;;;;4802728;29;20054;-68
2022/12/03 06:47:46;;;;;;;20.50;11.70;;;;;;;;;;4807339;29;20058;-69
2022/12/03 06:50:12;;;;;;;18.83;11.73;;;;;;;;;;4790681;29;20039;-70
2022/12/03 06:52:38;;;;;;;18.23;10.50;;;;;;;;;;4794559;29;20081;-69
2022/12/03 06:55:05;;;;;;;16.15;11.43;;;;;;;;;;4808046;29;20051;-69
2022/12/03 06:57:31;;;;;;;19.45;11.57;;;;;;;;;;4807885;29;20061;-69
2022/12/03 06:59:59;;;;;;;14.55;10.68;;;;;;;;;;4807639;29;20054;-69
2022/12/03 07:02:25;;;;;;;20.10;11.48;;;;;;;;;;4808063;29;20050;-69
2022/12/03 07:04:51;;;;;;;16.25;10.73;;;;;;;;;;4802551;29;20135;-69
2022/12/03 07:07:17;;;;;;;17.63;11.25;;;;;;;;;;4799325;29;20039;-69
2022/12/03 07:09:43;;;;;;;17.10;10.07;;;;;;;;;;4806301;29;20053;-69
2022/12/03 07:12:09;;;;;;;18.00;11.60;;;;;;;;;;4807534;29;20054;-68
2022/12/03 07:14:35;;;;;;;17.77;11.48;;;;;;;;;;4807373;29;20499;-69
2022/12/03 07:17:02;;;;;;;17.83;11.63;;;;;;;;;;4807457;29;20046;-69
2022/12/03 07:19:28;;;;;;;18.58;11.50;;;;;;;;;;4807611;29;20491;-69
2022/12/03 07:21:54;;;;;;;17.20;11.75;;;;;;;;;;4807018;29;20058;-69
2022/12/03 07:24:20;;;;;;;23.10;13.43;;;;;;;;;;4807090;29;20043;-69
2022/12/03 07:26:46;;;;;;;20.25;12.75;;;;;;;;;;4807295;29;20042;-69
2022/12/03 07:29:12;;;;;;;18.75;11.73;;;;;;;;;;4807309;29;20082;-69
2022/12/03 07:31:38;;;;;;;17.55;12.05;;;;;;;;;;4806862;29;20058;-69
2022/12/03 07:34:04;;;;;;;16.77;11.93;;;;;;;;;;4807287;29;20053;-69
2022/12/03 07:36:30;;;;;;;18.95;11.57;;;;;;;;;;4807499;29;20125;-67
2022/12/03 07:38:56;;;;;;;18.25;12.45;;;;;;;;;;4806986;29;20042;-69
2022/12/03 07:41:23;;;;;;;21.38;13.07;;;;;;;;;;4807348;29;20106;-69
2022/12/03 07:43:49;;;;;;;16.10;11.80;;;;;;;;;;4806958;29;20054;-69
2022/12/03 07:46:15;;;;;;;18.38;12.05;;;;;;;;;;4821110;29;20090;-69
2022/12/03 07:48:41;;;;;;;19.55;12.18;;;;;;;;;;4807475;29;20047;-69
2022/12/03 07:51:07;;;;;;;17.50;11.95;;;;;;;;;;4807462;29;20127;-69
2022/12/03 07:53:34;;;;;;;25.13;15.13;;;;;;;;;;4807323;29;20127;-69
2022/12/03 07:56:01;;;;;;;22.35;14.65;;;;;;;;;;4807331;29;20483;-69
2022/12/03 07:58:28;;;;;;;23.85;14.38;;;;;;;;;;4807105;29;20043;-68
2022/12/03 08:00:54;;;;;;;21.10;13.57;;;;;;;;;;4807338;29;20050;-69
2022/12/03 08:03:20;;;;;;;20.02;13.80;;;;;;;;;;4807696;29;20050;-69
2022/12/03 08:05:46;;;;;;;23.88;15.77;;;;;;;;;;4807050;29;20534;-69
2022/12/03 08:08:12;;;;;;;25.77;17.55;;;;;;;;;;4807114;29;20174;-69
2022/12/03 08:10:38;;;;;;;25.52;16.92;;;;;;;;;;4807170;29;20042;-69
2022/12/03 08:13:10;;;;;;;24.48;16.20;;;;;;;;;;4807698;29;20050;-69
2022/12/03 08:15:36;;;;;;;31.42;18.08;;;;;;;;;;4806900;29;20043;-69
2022/12/03 08:18:07;;;;;;;33.22;19.35;;;;;;;;;;4807205;29;20051;-69
2022/12/03 08:20:34;;;;;;;28.33;17.35;;;;;;;;;;4807362;29;20049;-69
2022/12/03 08:23:03;;;;;;;26.52;16.35;;;;;;;;;;4807157;29;20108;-69
2022/12/03 08:25:30;;;;;;;22.85;14.18;;;;;;;;;;4807030;29;20047;-69
2022/12/03 08:28:00;;;;;;;19.15;14.20;;;;;;;;;;4809809;29;20047;-69
2022/12/03 08:30:26;;;;;;;21.00;13.57;;;;;;;;;;4810154;29;20183;-69
2022/12/03 08:32:53;;;;;;;22.42;14.60;;;;;;;;;;4809813;29;20643;-69
2022/12/03 08:35:23;;;;;;;19.60;13.90;;;;;;;;;;4810633;29;20046;-69
2022/12/03 08:37:55;;;;;;;17.27;11.75;;;;;;;;;;4823928;29;20449;-69
2022/12/03 08:40:33;;;;;;;18.63;11.52;;;;;;;;;;4810054;29;20071;-69
2022/12/03 08:42:59;;;;;;;19.92;12.13;;;;;;;;;;4810007;29;20047;-69
2022/12/03 08:45:26;;;;;;;19.38;12.68;;;;;;;;;;4809872;29;20051;-69
2022/12/03 08:47:55;;;;;;;21.40;12.75;;;;;;;;;;4809577;29;20137;-69
2022/12/03 08:50:28;;;;;;;19.05;11.95;;;;;;;;;;4810370;29;20133;-69
2022/12/03 08:52:57;;;;;;;20.00;12.40;;;;;;;;;;4807978;29;20043;-69
2022/12/03 08:55:36;;;;;;;16.23;11.55;;;;;;;;;;4799225;29;20055;-69
2022/12/03 08:58:14;;;;;;;14.95;10.77;;;;;;;;;;4809354;29;20049;-69
2022/12/03 09:00:41;;;;;;;14.60;10.40;;;;;;;;;;4814459;29;20089;-69
2022/12/03 09:03:12;;;;;;;13.55;9.80;;;;;;;;;;4827326;29;20046;-69
2022/12/03 09:05:38;;;;;;;15.15;9.02;;;;;;;;;;4828190;29;20482;-69
2022/12/03 09:08:04;;;;;;;12.60;8.60;;;;;;;;;;4827453;29;20077;-69
2022/12/03 09:10:30;;;;;;;10.85;8.23;;;;;;;;;;4827534;29;20086;-69
2022/12/03 09:12:56;;;;;;;18.90;10.52;;;;;;;;;;4809261;29;20053;-69
2022/12/03 09:15:22;;;;;;;15.05;9.88;;;;;;;;;;4813154;29;20058;-69
2022/12/03 09:17:49;;;;;;;12.13;8.50;;;;;;;;;;4822141;29;20042;-69
2022/12/03 09:20:15;;;;;;;12.82;8.95;;;;;;;;;;4820659;29;20050;-69
2022/12/03 09:22:41;;;;;;;12.57;8.68;;;;;;;;;;4826917;29;20043;-69
2022/12/03 09:25:08;;;;;;;10.57;8.20;;;;;;;;;;4809363;29;20078;-69
2022/12/03 09:27:34;;;;;;;13.18;9.10;;;;;;;;;;4812249;29;20126;-70
2022/12/03 09:30:00;;;;;;;12.43;9.07;;;;;;;;;;4802878;29;20046;-69
2022/12/03 09:32:26;;;;;;;12.57;8.80;;;;;;;;;;4790657;29;20104;-69
2022/12/03 09:34:52;;;;;;;12.95;8.90;;;;;;;;;;4805004;29;20055;-69
2022/12/03 09:37:20;;;;;;;11.43;8.45;;;;;;;;;;4805809;29;20054;-69
2022/12/03 09:39:47;;;;;;;12.13;8.70;;;;;;;;;;4801679;29;20092;-69
2022/12/03 09:42:13;;;;;;;12.60;9.25;;;;;;;;;;4796128;29;20426;-69
2022/12/03 09:44:39;;;;;;;14.27;9.98;;;;;;;;;;4802773;29;20119;-69
2022/12/03 09:47:06;;;;;;;16.10;9.18;;;;;;;;;;4802361;29;20078;-68
2022/12/03 09:49:35;;;;;;;15.00;9.52;;;;;;;;;;4808122;29;20074;-69
2022/12/03 09:52:02;;;;;;;15.88;10.60;;;;;;;;;;4799299;29;20085;-70
2022/12/03 09:54:29;;;;;;;16.77;10.30;;;;;;;;;;4803855;29;20584;-68
2022/12/03 09:56:57;;;;;;;19.38;12.13;;;;;;;;;;4799631;29;20047;-68
2022/12/03 09:59:25;;;;;;;16.17;12.48;;;;;;;;;;4795464;29;20580;-68
2022/12/03 10:01:52;;;;;;;18.95;12.60;;;;;;;;;;4807761;29;20051;-68
2022/12/03 10:04:19;;;;;;;18.52;13.00;;;;;;;;;;4807376;29;20051;-70
2022/12/03 10:06:45;;;;;;;18.73;12.27;;;;;;;;;;4806810;29;20070;-69
2022/12/03 10:09:13;;;;;;;20.90;12.10;;;;;;;;;;4808384;29;20134;-69
2022/12/03 10:11:39;;;;;;;17.02;12.13;;;;;;;;;;4807583;29;20050;-69
2022/12/03 10:14:05;;;;;;;19.52;12.98;;;;;;;;;;4808326;29;20144;-69
2022/12/03 10:16:32;;;;;;;17.02;13.38;;;;;;;;;;4805071;29;20050;-69
2022/12/03 10:18:59;;;;;;;16.08;12.07;;;;;;;;;;4799933;29;20515;-68
2022/12/03 10:21:30;;;;;;;19.48;13.45;;;;;;;;;;4797823;29;20051;-68
2022/12/03 10:24:20;;;;;;;31.73;20.40;;;;;;;;;;4790871;30;20050;-68
2022/12/03 10:26:47;;;;;;;30.23;19.08;;;;;;;;;;4780642;30;20055;-69
2022/12/03 10:29:17;;;;;;;24.50;16.55;;;;;;;;;;4790171;30;20144;-68
2022/12/03 10:31:44;;;;;;;29.15;19.83;;;;;;;;;;4790175;30;20138;-68
2022/12/03 10:34:10;;;;;;;19.10;13.85;;;;;;;;;;4789757;30;20047;-68
2022/12/03 10:36:37;;;;;;;13.63;9.75;;;;;;;;;;4792934;29;20074;-68
2022/12/03 10:39:13;;;;;;;13.40;9.32;;;;;;;;;;4804847;29;20047;-68
2022/12/03 10:41:40;;;;;;;13.23;10.05;;;;;;;;;;4790235;30;20062;-69
2022/12/03 10:44:19;;;;;;;12.57;9.45;;;;;;;;;;4799369;29;20035;-68
2022/12/03 10:47:04;;;;;;;13.98;9.63;;;;;;;;;;4812985;29;20059;-69
2022/12/03 10:49:30;;;;;;;11.85;8.77;;;;;;;;;;4799282;29;20043;-69
2022/12/03 10:51:57;;;;;;;12.77;9.27;;;;;;;;;;4802190;29;20121;-68
2022/12/03 10:54:24;;;;;;;14.00;8.90;;;;;;;;;;4807456;29;20047;-69
2022/12/03 10:56:51;;;;;;;12.00;9.75;;;;;;;;;;4801986;29;20100;-69
2022/12/03 10:59:22;;;;;;;14.45;10.15;;;;;;;;;;4800663;29;20088;-68
2022/12/03 11:01:48;;;;;;;15.30;10.13;;;;;;;;;;4818404;29;20059;-68
2022/12/03 11:04:18;;;;;;;23.77;17.77;;;;;;;;;;4817168;29;20070;-69
2022/12/03 11:06:44;;;;;;;14.90;11.90;;;;;;;;;;4807173;29;20050;-69
2022/12/03 11:09:19;;;;;;;16.63;11.75;;;;;;;;;;4813034;29;20107;-69
2022/12/03 11:11:45;;;;;;;17.15;12.13;;;;;;;;;;4806913;29;20130;-69
2022/12/03 11:14:11;;;;;;;15.73;12.90;;;;;;;;;;4807324;29;20057;-69
2022/12/03 11:16:41;;;;;;;15.45;11.45;;;;;;;;;;4807199;29;20098;-68
2022/12/03 11:19:13;;;;;;;16.15;10.88;;;;;;;;;;4804733;29;20424;-68
2022/12/03 11:21:57;;;;;;;15.35;9.93;;;;;;;;;;4788908;30;20043;-69
2022/12/03 11:24:24;;;;;;;11.77;8.52;;;;;;;;;;4796464;29;20051;-69
2022/12/03 11:26:50;;;;;;;10.05;8.07;;;;;;;;;;4804594;29;20050;-68
2022/12/03 11:29:16;;;;;;;11.85;7.38;;;;;;;;;;4809100;29;20042;-68
2022/12/03 11:31:43;;;;;;;12.75;9.23;;;;;;;;;;4808667;29;20050;-69
2022/12/03 11:34:19;;;;;;;17.73;14.18;;;;;;;;;;4807060;29;20051;-69
2022/12/03 11:37:04;;;;;;;13.65;11.57;;;;;;;;;;4806859;29;20102;-69
2022/12/03 11:39:48;;;;;;;21.05;16.80;;;;;;;;;;4808937;29;20046;-69
2022/12/03 11:42:26;;;;;;;11.13;7.85;;;;;;;;;;4797420;29;20134;-69
2022/12/03 11:45:04;;;;;;;11.23;7.75;;;;;;;;;;4789226;30;20051;-68
2022/12/03 11:47:31;;;;;;;9.07;7.30;;;;;;;;;;4789566;30;20086;-69
2022/12/03 11:49:57;;;;;;;10.32;7.18;;;;;;;;;;4789446;30;20082;-68
2022/12/03 11:52:28;;;;;;;10.70;7.45;;;;;;;;;;4789269;30;20112;-69
2022/12/03 11:54:57;;;;;;;10.85;7.72;;;;;;;;;;4790015;30;20079;-69
2022/12/03 11:57:50;;;;;;;9.13;7.38;;;;;;;;;;4789008;30;20046;-69
2022/12/03 12:00:20;;;;;;;10.63;7.90;;;;;;;;;;4792071;29;20047;-68
2022/12/03 12:02:46;;;;;;;;;;;;;;;;;;4796791;29;20047;-69
2022/12/03 12:05:17;;;;;;;9.60;7.68;;;;;;;;;;4813633;29;20327;-69
2022/12/03 12:07:46;;;;;;;9.57;7.50;;;;;;;;;;4810407;29;20077;-69
2022/12/03 12:10:13;;;;;;;9.95;6.95;;;;;;;;;;4819243;29;20098;-68
2022/12/03 12:12:39;;;;;;;8.40;7.47;;;;;;;;;;4828503;29;20077;-69
2022/12/03 12:15:24;;;;;;;12.88;10.38;;;;;;;;;;4828913;29;20042;-69
2022/12/03 12:17:50;;;;;;;10.65;8.30;;;;;;;;;;4823901;29;20100;-69
2022/12/03 12:20:26;;;;;;;12.13;8.40;;;;;;;;;;4802066;29;20408;-68
2022/12/03 12:22:53;;;;;;;12.50;9.10;;;;;;;;;;4806605;29;20081;-68
2022/12/03 12:25:36;;;;;;;9.13;7.85;;;;;;;;;;4797851;29;20054;-71
2022/12/03 12:28:03;;;;;;;12.82;9.98;;;;;;;;;;4801034;29;20047;-70
2022/12/03 12:30:29;;;;;;;10.63;8.32;;;;;;;;;;4806596;29;20047;-69
2022/12/03 12:33:07;;;;;;;11.10;8.10;;;;;;;;;;4791934;30;20400;-68
2022/12/03 12:35:35;;;;;;;9.73;7.72;;;;;;;;;;4797847;29;20047;-68
2022/12/03 12:38:09;;;;;;;15.70;11.82;;;;;;;;;;4803713;29;20039;-70
2022/12/03 12:40:36;;;;;;;15.80;12.70;;;;;;;;;;4792745;29;20051;-69
2022/12/03 12:43:04;;;;;;;15.43;12.60;;;;;;;;;;4798147;29;20055;-68
2022/12/03 12:45:33;;;;;;;14.00;12.10;;;;;;;;;;4799215;29;20530;-69
2022/12/03 12:48:14;;;;;;;10.63;8.88;;;;;;;;;;4804558;29;20035;-68
2022/12/03 12:50:42;;;;;;;10.10;8.48;;;;;;;;;;4795009;29;20070;-69
2022/12/03 12:53:11;;;;;;;12.32;8.85;;;;;;;;;;4799678;29;20058;-68
2022/12/03 12:55:39;;;;;;;12.15;8.52;;;;;;;;;;4802652;29;20108;-68
2022/12/03 12:58:13;;;;;;;10.73;8.20;;;;;;;;;;4798995;29;20062;-68
2022/12/03 13:00:40;;;;;;;11.80;6.95;;;;;;;;;;4792849;29;20054;-68
2022/12/03 13:03:06;;;;;;;9.68;7.15;;;;;;;;;;4800920;29;20050;-69
2022/12/03 13:05:37;;;;;;;7.28;5.60;;;;;;;;;;4807695;29;20046;-69
2022/12/03 13:08:03;;;;;;;10.93;5.80;;;;;;;;;;4799043;29;20055;-69
2022/12/03 13:10:32;;;;;;;5.80;4.57;;;;;;;;;;4805680;29;20125;-69
2022/12/03 13:13:01;;;;;;;5.90;5.05;;;;;;;;;;4799767;29;20142;-69
2022/12/03 13:15:39;;;;;;;6.43;5.15;;;;;;;;;;4800656;29;20042;-69
2022/12/03 13:18:20;;;;;;;5.15;3.80;;;;;;;;;;4808867;29;20038;-69
2022/12/03 13:20:46;;;;;;;4.28;3.50;;;;;;;;;;4805464;29;20050;-70
2022/12/03 13:23:39;;;;;;;3.58;3.10;;;;;;;;;;4809778;29;20077;-69
2022/12/03 13:26:14;;;;;;;4.78;3.17;;;;;;;;;;4799347;29;20058;-67
2022/12/03 13:28:41;;;;;;;5.53;3.03;;;;;;;;;;4805181;29;20054;-68
2022/12/03 13:31:16;;;;;;;2.45;2.25;;;;;;;;;;4799479;29;20100;-68
2022/12/03 13:33:42;;;;;;;3.55;3.25;;;;;;;;;;4804650;29;20058;-68
2022/12/03 13:36:11;;;;;;;9.23;6.60;;;;;;;;;;4799416;29;20050;-68
2022/12/03 13:38:37;;;;;;;36.33;23.42;;;;;;;;;;4797029;29;20499;-67
2022/12/03 13:41:03;;;;;;;5.90;4.65;;;;;;;;;;4793518;29;20059;-67
2022/12/03 13:43:34;;;;;;;1.83;1.35;;;;;;;;;;4800253;29;20074;-67
2022/12/03 13:46:00;;;;;;;4.25;2.75;;;;;;;;;;4798735;29;20507;-67
2022/12/03 13:48:30;;;;;;;1.70;1.60;;;;;;;;;;4798349;29;20576;-67
2022/12/03 13:50:57;;;;;;;2.05;1.90;;;;;;;;;;4801345;29;20492;-67
2022/12/03 13:53:33;;;;;;;4.10;3.45;;;;;;;;;;4798127;29;20051;-68
2022/12/03 13:56:02;;;;;;;3.72;2.60;;;;;;;;;;4798372;29;20046;-67
2022/12/03 13:58:28;;;;;;;2.63;2.10;;;;;;;;;;4799029;29;20047;-67
2022/12/03 14:00:54;;;;;;;8.52;6.07;;;;;;;;;;4798463;29;20051;-67
2022/12/03 14:03:22;;;;;;;5.97;4.15;;;;;;;;;;4798945;29;20065;-67
2022/12/03 14:05:48;;;;;;;2.58;2.25;;;;;;;;;;4799260;29;20043;-67
2022/12/03 14:08:14;;;;;;;9.98;6.28;;;;;;;;;;4797283;29;20051;-67
2022/12/03 14:10:40;;;;;;;5.03;3.55;;;;;;;;;;4805248;29;20039;-68
2022/12/03 14:13:06;;;;;;;4.50;3.05;;;;;;;;;;4796601;29;20051;-68
2022/12/03 14:15:32;;;;;;;1.63;1.08;;;;;;;;;;4796829;29;20080;-68
2022/12/03 14:17:58;;;;;;;11.20;8.05;;;;;;;;;;4797307;29;20045;-69
2022/12/03 14:20:25;;;;;;;1.40;1.30;;;;;;;;;;4794496;29;20054;-68
2022/12/03 14:22:51;;;;;;;9.63;7.78;;;;;;;;;;4798487;29;20055;-68
2022/12/03 14:25:17;;;;;;;3.63;2.50;;;;;;;;;;4797687;29;20046;-68
2022/12/03 14:27:43;;;;;;;2.72;1.55;;;;;;;;;;4794767;29;20062;-67
2022/12/03 14:30:10;;;;;;;2.15;1.88;;;;;;;;;;4795531;29;20545;-67
2022/12/03 14:32:36;;;;;;;1.40;1.10;;;;;;;;;;4789637;29;20055;-68
2022/12/03 14:35:02;;;;;;;5.80;5.03;;;;;;;;;;4799942;29;20055;-68
2022/12/03 14:37:28;;;;;;;91.00;67.72;;;;;;;;;;4796972;29;20092;-68
2022/12/03 14:39:55;;;;;;;15.23;13.10;;;;;;;;;;4801641;29;20043;-67
2022/12/03 14:42:21;;;;;;;14.23;10.98;;;;;;;;;;4797752;29;20058;-68
2022/12/03 14:44:48;;;;;;;13.32;11.40;;;;;;;;;;4797504;29;20039;-67
2022/12/03 14:47:15;;;;;;;304.30;139.40;;;;;;;;;;4795440;29;20485;-68
2022/12/03 14:49:42;;;;;;;113.20;78.50;;;;;;;;;;4794955;29;20123;-66
2022/12/03 14:52:09;;;;;;;25.70;19.13;;;;;;;;;;4795011;29;20070;-66